Time;durP1;ratioP1;P1;durP2;ratioP2;P2;SDS_P1;SDS_P2;PMS_P1;PMS_P2;Temp;Humidity;BMP_temperature;BMP_pressure;BME280_temperature;BME280_humidity;BME280_pressure;Samples;Min_cycle;Max_cycle;Signal;HPM_P1;HPM_P2
2022/07/22 00:01:23;;;;;;;1.15;1.08;;;16.70;99.90;;;;;;4970684;28;20534;-83
2022/07/22 00:03:50;;;;;;;0.98;0.98;;;16.90;99.90;;;;;;4993561;28;20434;-82
2022/07/22 00:06:17;;;;;;;1.30;1.30;;;16.90;99.90;;;;;;4972438;28;20443;-83
2022/07/22 00:08:44;;;;;;;0.98;0.98;;;16.90;99.90;;;;;;4977359;28;20433;-82
2022/07/22 00:11:10;;;;;;;0.90;0.90;;;16.80;99.90;;;;;;4977545;28;20456;-82
2022/07/22 00:13:37;;;;;;;1.00;1.00;;;16.60;99.90;;;;;;4969920;28;21074;-82
2022/07/22 00:16:04;;;;;;;0.93;0.93;;;16.50;99.90;;;;;;4970013;28;20453;-82
2022/07/22 00:18:33;;;;;;;1.20;1.10;;;16.30;99.90;;;;;;4977074;28;20508;-83
2022/07/22 00:21:00;;;;;;;1.00;1.00;;;16.10;99.90;;;;;;4974980;28;20451;-82
2022/07/22 00:23:37;;;;;;;1.00;1.00;;;16.10;99.90;;;;;;4971234;28;20533;-82
2022/07/22 00:26:06;;;;;;;1.20;1.17;;;16.00;99.90;;;;;;4973843;28;20448;-83
2022/07/22 00:28:34;;;;;;;1.25;1.15;;;16.00;99.90;;;;;;4967567;28;20442;-83
2022/07/22 00:31:01;;;;;;;0.93;0.93;;;16.00;99.90;;;;;;4967754;28;20442;-83
2022/07/22 00:33:28;;;;;;;1.23;1.23;;;16.10;99.90;;;;;;4974163;28;20932;-83
2022/07/22 00:35:55;;;;;;;1.15;1.15;;;16.20;99.90;;;;;;4989481;28;20826;-83
2022/07/22 00:38:22;;;;;;;1.40;1.30;;;16.30;99.90;;;;;;4989054;28;20502;-82
2022/07/22 00:40:48;;;;;;;1.23;1.13;;;16.40;99.90;;;;;;4960818;28;20438;-82
2022/07/22 00:43:15;;;;;;;1.77;1.33;;;16.60;99.90;;;;;;4985677;28;20434;-83
2022/07/22 00:45:42;;;;;;;0.90;0.90;;;16.60;99.90;;;;;;4984952;28;20473;-82
2022/07/22 00:48:12;;;;;;;1.38;1.27;;;16.60;99.90;;;;;;4972743;28;20833;-82
2022/07/22 00:50:39;;;;;;;1.20;1.20;;;16.60;99.90;;;;;;4985042;28;20430;-82
2022/07/22 00:53:07;;;;;;;0.90;0.90;;;16.40;99.90;;;;;;4971826;28;20438;-82
2022/07/22 00:55:34;;;;;;;1.00;1.00;;;16.40;99.90;;;;;;4989739;28;20824;-82
2022/07/22 00:58:03;;;;;;;0.95;0.95;;;16.30;99.90;;;;;;4974776;28;20776;-82
2022/07/22 01:00:31;;;;;;;1.40;1.10;;;16.30;99.90;;;;;;4974523;28;20437;-82
2022/07/22 01:02:58;;;;;;;1.00;1.00;;;16.40;99.90;;;;;;4987714;28;21013;-82
2022/07/22 01:05:24;;;;;;;1.40;1.25;;;16.40;99.90;;;;;;4971566;28;20434;-82
2022/07/22 01:07:51;;;;;;;0.98;0.98;;;16.40;99.90;;;;;;4974661;28;21035;-82
2022/07/22 01:10:18;;;;;;;1.10;1.10;;;16.30;99.90;;;;;;4986946;28;20896;-83
2022/07/22 01:12:45;;;;;;;0.75;0.75;;;16.30;99.90;;;;;;4973420;28;20521;-82
2022/07/22 01:15:14;;;;;;;1.48;1.38;;;16.20;99.90;;;;;;4972588;28;20481;-82
2022/07/22 01:17:41;;;;;;;1.00;1.00;;;16.20;99.90;;;;;;4969835;28;20555;-82
2022/07/22 01:20:08;;;;;;;1.58;1.48;;;16.10;99.90;;;;;;4972469;28;20416;-82
2022/07/22 01:22:41;;;;;;;1.40;1.30;;;16.20;99.90;;;;;;4990808;28;20448;-82
2022/07/22 01:25:08;;;;;;;1.20;1.10;;;16.10;99.90;;;;;;4976461;28;20514;-82
2022/07/22 01:27:35;;;;;;;1.20;1.10;;;16.20;99.90;;;;;;4989181;28;20433;-82
2022/07/22 01:30:06;;;;;;;1.23;1.23;;;16.20;99.90;;;;;;4970219;28;20448;-82
2022/07/22 01:32:32;;;;;;;1.20;1.10;;;16.30;99.90;;;;;;4978408;28;20434;-83
2022/07/22 01:34:59;;;;;;;1.17;1.10;;;16.40;99.90;;;;;;4971405;28;20438;-82
2022/07/22 01:37:26;;;;;;;1.10;1.10;;;16.40;99.90;;;;;;4971808;28;20517;-82
2022/07/22 01:39:53;;;;;;;1.00;1.00;;;16.50;99.90;;;;;;4987543;28;20450;-82
2022/07/22 01:42:20;;;;;;;1.35;1.27;;;16.60;99.90;;;;;;4990313;28;20524;-82
2022/07/22 01:44:49;;;;;;;1.10;1.10;;;16.60;99.90;;;;;;4986489;28;20947;-82
2022/07/22 01:47:18;;;;;;;1.30;1.30;;;16.70;99.90;;;;;;4976881;28;20470;-82
2022/07/22 01:49:45;;;;;;;1.42;1.35;;;16.70;99.90;;;;;;4987698;28;20928;-82
2022/07/22 01:52:11;;;;;;;1.17;1.17;;;16.80;99.90;;;;;;4982839;28;20446;-82
2022/07/22 01:54:38;;;;;;;1.42;1.33;;;16.80;99.90;;;;;;4970474;28;20448;-82
2022/07/22 01:57:05;;;;;;;1.42;1.40;;;16.80;99.90;;;;;;4970395;28;20430;-82
2022/07/22 01:59:32;;;;;;;1.45;1.20;;;16.80;99.90;;;;;;4987580;28;20505;-82
2022/07/22 02:02:05;;;;;;;1.30;1.20;;;16.80;99.90;;;;;;4986534;28;20444;-82
2022/07/22 02:04:31;;;;;;;1.85;1.58;;;16.80;99.90;;;;;;4970740;28;20438;-82
2022/07/22 02:06:58;;;;;;;1.20;1.10;;;16.80;99.90;;;;;;4970592;28;20465;-81
2022/07/22 02:09:25;;;;;;;1.42;1.33;;;16.70;99.90;;;;;;4972392;28;20521;-83
2022/07/22 02:11:52;;;;;;;1.63;1.52;;;16.70;99.90;;;;;;4968734;28;21008;-82
2022/07/22 02:14:24;;;;;;;1.30;1.20;;;16.70;99.90;;;;;;4968747;28;20520;-82
2022/07/22 02:16:51;;;;;;;1.40;1.30;;;16.70;99.90;;;;;;4973656;28;20493;-82
2022/07/22 02:19:18;;;;;;;1.42;1.42;;;16.60;99.90;;;;;;4978715;28;20434;-82
2022/07/22 02:21:47;;;;;;;1.38;1.27;;;16.60;99.90;;;;;;4976561;28;20489;-82
2022/07/22 02:24:14;;;;;;;1.75;1.50;;;16.50;99.90;;;;;;4964342;28;20521;-82
2022/07/22 02:26:43;;;;;;;1.08;1.05;;;16.40;99.90;;;;;;4970574;28;20445;-82
2022/07/22 02:29:10;;;;;;;1.60;1.10;;;16.40;99.90;;;;;;4985187;28;20442;-83
2022/07/22 02:31:37;;;;;;;1.15;1.15;;;16.40;99.90;;;;;;4967259;28;20482;-81
2022/07/22 02:34:04;;;;;;;1.20;1.10;;;16.30;99.90;;;;;;4989187;28;20493;-82
2022/07/22 02:36:33;;;;;;;1.00;1.00;;;16.30;99.90;;;;;;4977192;28;20466;-82
2022/07/22 02:39:01;;;;;;;1.08;1.08;;;16.30;99.90;;;;;;4985119;28;20441;-82
2022/07/22 02:41:28;;;;;;;1.60;1.30;;;16.20;99.90;;;;;;4988424;28;20521;-81
2022/07/22 02:43:55;;;;;;;1.60;1.50;;;16.10;99.90;;;;;;4966473;28;20807;-82
2022/07/22 02:46:23;;;;;;;1.90;1.40;;;16.10;99.90;;;;;;4962509;28;20446;-82
2022/07/22 02:48:50;;;;;;;1.55;1.52;;;16.00;99.90;;;;;;4974292;28;20491;-82
2022/07/22 02:51:17;;;;;;;1.17;1.08;;;15.90;99.90;;;;;;4967973;28;20442;-82
2022/07/22 02:53:44;;;;;;;1.45;1.35;;;15.70;99.90;;;;;;4969849;28;20438;-82
2022/07/22 02:56:10;;;;;;;1.00;1.00;;;15.70;99.90;;;;;;4966334;28;20449;-82
2022/07/22 02:58:37;;;;;;;1.15;1.15;;;15.60;99.90;;;;;;4967265;28;20450;-82
2022/07/22 03:01:04;;;;;;;2.00;1.20;;;15.60;99.90;;;;;;4987215;28;20445;-83
2022/07/22 03:03:31;;;;;;;1.25;1.25;;;15.60;99.90;;;;;;4985493;28;20482;-82
2022/07/22 03:06:03;;;;;;;1.20;1.20;;;15.50;99.90;;;;;;4970029;28;20426;-82
2022/07/22 03:08:30;;;;;;;1.15;1.15;;;15.50;99.90;;;;;;4985609;28;20961;-82
2022/07/22 03:10:57;;;;;;;1.48;1.38;;;15.40;99.90;;;;;;4984254;28;20421;-82
2022/07/22 03:13:26;;;;;;;1.25;1.25;;;15.40;99.90;;;;;;4967781;28;21013;-83
2022/07/22 03:15:56;;;;;;;1.13;1.13;;;15.30;99.90;;;;;;4963936;28;20897;-82
2022/07/22 03:18:23;;;;;;;1.05;1.05;;;15.20;99.90;;;;;;4967833;28;20422;-82
2022/07/22 03:20:50;;;;;;;1.25;1.10;;;15.20;99.90;;;;;;4967011;28;20525;-82
2022/07/22 03:23:17;;;;;;;1.00;1.00;;;15.30;99.90;;;;;;4975339;28;20451;-82
2022/07/22 03:25:45;;;;;;;1.48;1.38;;;15.30;99.90;;;;;;4968103;28;20434;-82
2022/07/22 03:28:12;;;;;;;1.88;1.35;;;15.20;99.90;;;;;;4984478;28;20748;-83
2022/07/22 03:30:39;;;;;;;1.13;1.02;;;15.20;99.90;;;;;;4966563;28;20521;-83
2022/07/22 03:33:06;;;;;;;1.60;1.20;;;15.30;99.90;;;;;;4957467;28;20446;-83
2022/07/22 03:35:33;;;;;;;1.35;1.25;;;15.30;99.90;;;;;;4965147;28;20444;-83
2022/07/22 03:38:01;;;;;;;1.33;1.23;;;15.40;99.90;;;;;;4982098;28;20803;-83
2022/07/22 03:40:28;;;;;;;1.10;1.10;;;15.30;99.90;;;;;;4984476;28;20517;-83
2022/07/22 03:42:56;;;;;;;1.38;1.27;;;15.40;99.90;;;;;;4968167;28;20492;-82
2022/07/22 03:45:23;;;;;;;1.20;1.20;;;15.30;99.90;;;;;;4972139;28;20938;-83
2022/07/22 03:47:50;;;;;;;1.10;1.00;;;15.30;99.90;;;;;;4966885;28;20525;-83
2022/07/22 03:50:17;;;;;;;1.20;1.10;;;15.50;99.90;;;;;;4967055;28;20492;-83
2022/07/22 03:52:44;;;;;;;1.90;1.80;;;15.60;99.90;;;;;;4971211;28;20439;-84
2022/07/22 03:55:11;;;;;;;1.45;1.30;;;15.70;99.90;;;;;;4973677;28;20529;-84
2022/07/22 03:57:38;;;;;;;1.30;1.30;;;15.70;99.90;;;;;;4974190;28;20524;-84
2022/07/22 04:00:06;;;;;;;1.65;1.55;;;15.70;99.90;;;;;;4961223;28;20464;-83
2022/07/22 04:02:32;;;;;;;1.48;1.20;;;15.80;99.90;;;;;;4959740;28;20445;-84
2022/07/22 04:04:59;;;;;;;1.02;1.02;;;15.80;99.90;;;;;;4967425;28;20435;-83
2022/07/22 04:07:26;;;;;;;1.27;1.17;;;15.70;99.90;;;;;;4983928;28;20440;-83
2022/07/22 04:10:04;;;;;;;1.17;1.17;;;15.70;99.90;;;;;;4984825;28;20513;-83
2022/07/22 04:12:40;;;;;;;1.20;1.20;;;15.70;99.90;;;;;;4961016;28;21171;-83
2022/07/22 04:15:08;;;;;;;1.30;1.20;;;15.70;99.90;;;;;;4980810;28;20439;-84
2022/07/22 04:17:34;;;;;;;0.88;0.88;;;15.70;99.90;;;;;;4978775;28;20529;-84
2022/07/22 04:20:05;;;;;;;1.20;1.10;;;15.80;99.90;;;;;;4960051;28;20832;-84
2022/07/22 04:22:32;;;;;;;1.33;1.23;;;15.80;99.90;;;;;;4961954;28;20549;-84
2022/07/22 04:24:59;;;;;;;1.30;1.20;;;15.90;99.90;;;;;;4967193;28;20685;-83
2022/07/22 04:27:25;;;;;;;1.02;1.00;;;16.00;99.90;;;;;;4967482;28;20448;-83
2022/07/22 04:29:52;;;;;;;1.98;1.58;;;16.00;99.90;;;;;;4975743;28;20453;-83
2022/07/22 04:32:28;;;;;;;1.48;1.38;;;16.10;99.90;;;;;;4962444;28;20532;-83
2022/07/22 04:34:55;;;;;;;1.60;1.50;;;16.20;99.90;;;;;;4965332;28;20565;-83
2022/07/22 04:37:21;;;;;;;1.77;1.67;;;16.20;99.90;;;;;;4968065;28;20617;-85
2022/07/22 04:39:48;;;;;;;1.17;1.17;;;16.20;99.90;;;;;;4970008;28;20913;-85
2022/07/22 04:42:15;;;;;;;1.17;1.17;;;16.20;99.90;;;;;;4972397;28;20509;-86
2022/07/22 04:44:44;;;;;;;1.40;1.30;;;15.90;99.90;;;;;;4976230;28;20465;-85
2022/07/22 04:47:11;;;;;;;2.35;1.75;;;15.80;99.90;;;;;;4971269;28;20517;-84
2022/07/22 04:49:38;;;;;;;1.40;1.30;;;15.90;99.90;;;;;;4962100;28;20452;-84
2022/07/22 04:52:06;;;;;;;1.30;1.27;;;16.30;99.90;;;;;;4967408;28;20438;-84
2022/07/22 04:54:35;;;;;;;1.40;1.30;;;16.70;99.90;;;;;;4967927;28;20445;-84
2022/07/22 04:57:02;;;;;;;1.48;1.23;;;17.30;99.90;;;;;;4970945;28;20448;-84
2022/07/22 04:59:32;;;;;;;0.90;0.90;;;17.90;99.90;;;;;;4965314;28;20434;-83
2022/07/22 05:01:59;;;;;;;1.30;1.20;;;18.40;99.90;;;;;;4982193;28;20445;-84
2022/07/22 05:04:28;;;;;;;1.48;1.38;;;18.80;99.90;;;;;;4974790;28;20448;-84
2022/07/22 05:06:55;;;;;;;1.40;1.40;;;19.20;99.90;;;;;;4969584;28;20534;-84
2022/07/22 05:09:21;;;;;;;0.98;0.98;;;19.50;99.90;;;;;;4988151;28;20460;-84
2022/07/22 05:11:48;;;;;;;1.20;1.10;;;19.90;99.90;;;;;;4971192;28;20445;-83
2022/07/22 05:14:19;;;;;;;1.17;1.10;;;20.20;99.90;;;;;;4969393;28;20433;-83
2022/07/22 05:16:46;;;;;;;1.20;1.20;;;20.40;99.90;;;;;;4986666;28;20863;-84
2022/07/22 05:19:13;;;;;;;1.25;1.10;;;20.50;99.90;;;;;;4984203;28;20437;-84
2022/07/22 05:21:40;;;;;;;1.50;1.40;;;20.80;99.90;;;;;;4983874;28;20494;-84
2022/07/22 05:24:07;;;;;;;1.20;1.20;;;21.20;99.90;;;;;;4966292;28;20433;-85
2022/07/22 05:26:34;;;;;;;1.35;1.27;;;21.30;99.90;;;;;;4973802;28;21201;-84
2022/07/22 05:29:01;;;;;;;1.02;1.02;;;21.70;99.90;;;;;;4989432;28;20480;-83
2022/07/22 05:31:28;;;;;;;0.90;0.90;;;21.60;99.90;;;;;;4986026;28;20438;-83
2022/07/22 05:33:55;;;;;;;1.27;1.10;;;21.60;99.90;;;;;;4972824;28;20431;-83
2022/07/22 05:36:22;;;;;;;0.70;0.70;;;21.50;99.90;;;;;;4967140;28;20522;-84
2022/07/22 05:38:49;;;;;;;2.10;1.30;;;21.60;99.90;;;;;;4970413;28;20430;-83
2022/07/22 05:41:16;;;;;;;1.02;1.02;;;21.80;99.90;;;;;;4984706;28;20438;-83
2022/07/22 05:43:43;;;;;;;1.30;1.20;;;22.00;99.90;;;;;;4970707;28;20489;-83
2022/07/22 05:46:13;;;;;;;1.10;1.10;;;22.20;99.90;;;;;;4982154;28;20437;-83
2022/07/22 05:48:40;;;;;;;1.17;1.10;;;22.50;99.90;;;;;;4971473;28;20510;-82
2022/07/22 05:51:13;;;;;;;1.10;1.10;;;22.70;99.90;;;;;;4990114;28;20937;-82
2022/07/22 05:53:41;;;;;;;0.98;0.98;;;23.10;99.90;;;;;;4985326;28;20446;-81
2022/07/22 05:56:12;;;;;;;0.90;0.90;;;23.30;99.90;;;;;;4966311;28;20500;-83
2022/07/22 05:58:40;;;;;;;1.03;1.03;;;23.30;99.90;;;;;;4978687;28;20430;-82
2022/07/22 06:01:08;;;;;;;1.33;1.23;;;23.30;99.90;;;;;;4976603;28;20512;-83
2022/07/22 06:03:35;;;;;;;0.85;0.85;;;23.20;99.90;;;;;;4994935;28;20434;-82
2022/07/22 06:06:04;;;;;;;0.90;0.90;;;23.50;99.90;;;;;;4978478;28;20430;-83
2022/07/22 06:08:31;;;;;;;0.85;0.85;;;23.40;99.90;;;;;;4988572;28;21581;-83
2022/07/22 06:10:59;;;;;;;1.23;1.00;;;23.20;99.90;;;;;;4987242;28;20444;-83
2022/07/22 06:13:26;;;;;;;0.80;0.80;;;23.30;99.90;;;;;;4986171;28;20432;-82
2022/07/22 06:15:53;;;;;;;0.98;0.98;;;23.70;99.90;;;;;;4967547;28;20443;-82
2022/07/22 06:18:20;;;;;;;1.30;1.30;;;24.10;99.90;;;;;;4984132;28;20442;-83
2022/07/22 06:20:47;;;;;;;0.95;0.95;;;24.60;99.90;;;;;;4963180;28;20430;-83
2022/07/22 06:23:14;;;;;;;1.10;1.10;;;25.20;99.90;;;;;;4971549;28;20888;-82
2022/07/22 06:25:41;;;;;;;1.00;1.00;;;25.60;99.90;;;;;;4984157;28;20525;-84
2022/07/22 06:28:10;;;;;;;1.05;1.05;;;25.20;99.90;;;;;;4969241;28;20916;-83
2022/07/22 06:30:38;;;;;;;1.10;1.10;;;25.40;99.90;;;;;;4975499;28;20874;-84
2022/07/22 06:33:06;;;;;;;1.20;1.20;;;25.70;99.90;;;;;;4966778;28;20460;-84
2022/07/22 06:35:33;;;;;;;0.82;0.82;;;25.90;99.90;;;;;;4965752;28;20440;-84
2022/07/22 06:38:00;;;;;;;1.00;1.00;;;26.30;99.90;;;;;;4964609;28;20448;-84
2022/07/22 06:40:33;;;;;;;0.90;0.90;;;26.10;99.90;;;;;;4972489;28;20428;-83
2022/07/22 06:43:00;;;;;;;0.90;0.90;;;25.30;99.90;;;;;;4982469;28;20426;-84
2022/07/22 06:45:27;;;;;;;0.80;0.80;;;25.40;99.90;;;;;;4984104;28;20536;-83
2022/07/22 06:47:55;;;;;;;1.17;1.10;;;24.50;99.90;;;;;;4986147;28;20473;-83
2022/07/22 06:50:22;;;;;;;1.00;1.00;;;24.30;99.90;;;;;;4962981;28;20955;-84
2022/07/22 06:52:50;;;;;;;1.05;1.05;;;24.60;99.90;;;;;;4964534;28;20449;-83
2022/07/22 06:55:17;;;;;;;0.95;0.95;;;24.50;99.90;;;;;;4963323;28;20831;-83
2022/07/22 06:57:43;;;;;;;1.00;1.00;;;23.90;99.90;;;;;;4967732;28;20470;-83
2022/07/22 07:00:11;;;;;;;1.30;1.10;;;23.20;99.90;;;;;;4984326;28;20473;-84
2022/07/22 07:02:37;;;;;;;1.10;1.02;;;22.50;99.90;;;;;;4984482;28;20529;-84
2022/07/22 07:05:04;;;;;;;1.05;0.95;;;22.60;99.90;;;;;;4981750;28;20473;-83
2022/07/22 07:07:31;;;;;;;1.33;1.33;;;23.50;99.90;;;;;;4965546;28;20454;-84
2022/07/22 07:10:03;;;;;;;1.20;1.10;;;23.50;99.90;;;;;;4984450;28;20753;-83
2022/07/22 07:12:34;;;;;;;1.00;1.00;;;24.30;99.90;;;;;;4969861;28;20453;-86
2022/07/22 07:15:04;;;;;;;2.17;1.02;;;25.00;99.90;;;;;;4982083;28;20830;-84
2022/07/22 07:17:51;;;;;;;1.08;1.08;;;24.70;99.90;;;;;;4967130;28;20533;-85
2022/07/22 07:20:18;;;;;;;1.03;1.03;;;25.00;99.90;;;;;;4964648;28;20492;-85
2022/07/22 07:22:45;;;;;;;1.00;1.00;;;24.90;99.90;;;;;;4963649;28;20482;-83
2022/07/22 07:25:12;;;;;;;1.35;1.33;;;25.20;99.90;;;;;;4983551;28;20497;-83
2022/07/22 07:27:49;;;;;;;1.10;1.10;;;25.70;99.90;;;;;;4986166;28;20430;-85
2022/07/22 07:30:16;;;;;;;1.08;1.08;;;26.20;99.90;;;;;;4965790;28;20457;-86
2022/07/22 07:32:43;;;;;;;1.53;1.43;;;26.10;99.90;;;;;;4987002;28;20446;-85
2022/07/22 07:35:13;;;;;;;1.30;1.30;;;25.70;99.90;;;;;;4961206;28;20980;-84
2022/07/22 07:37:39;;;;;;;1.20;1.20;;;25.80;99.90;;;;;;4981164;28;20529;-83
2022/07/22 07:40:07;;;;;;;1.25;1.15;;;26.00;99.90;;;;;;4967392;28;21040;-84
2022/07/22 07:42:34;;;;;;;1.10;1.10;;;25.90;99.90;;;;;;4979848;28;20489;-83
2022/07/22 07:45:12;;;;;;;1.20;1.10;;;26.00;99.90;;;;;;4981455;28;20442;-84
2022/07/22 07:47:39;;;;;;;1.53;1.20;;;25.80;99.90;;;;;;4982538;28;20440;-84
2022/07/22 07:50:07;;;;;;;1.13;1.13;;;26.00;99.90;;;;;;4965029;28;20549;-84
2022/07/22 07:52:42;;;;;;;1.10;1.10;;;26.30;99.90;;;;;;4965130;28;20445;-84
2022/07/22 07:55:18;;;;;;;1.20;1.20;;;26.10;99.90;;;;;;4965686;28;21412;-84
2022/07/22 07:57:48;;;;;;;0.93;0.93;;;27.10;99.90;;;;;;4981329;28;20438;-83
2022/07/22 08:00:22;;;;;;;1.00;1.00;;;28.00;99.90;;;;;;4959794;28;20446;-84
2022/07/22 08:02:49;;;;;;;1.40;1.30;;;28.60;99.90;;;;;;4962674;28;20482;-84
2022/07/22 08:05:18;;;;;;;1.58;1.48;;;28.90;99.90;;;;;;4977322;28;20469;-85
2022/07/22 08:07:46;;;;;;;1.42;1.40;;;29.30;99.90;;;;;;4969963;28;20458;-84
2022/07/22 08:10:13;;;;;;;1.05;1.05;;;29.60;99.90;;;;;;4984970;28;20611;-83
2022/07/22 08:13:00;;;;;;;1.50;1.45;;;30.00;99.90;;;;;;4985425;28;20422;-85
2022/07/22 08:15:28;;;;;;;1.33;1.33;;;29.90;99.90;;;;;;4987407;28;20444;-84
2022/07/22 08:17:55;;;;;;;1.60;1.50;;;30.00;99.90;;;;;;4987220;28;20475;-85
2022/07/22 08:20:24;;;;;;;1.30;1.30;;;28.30;99.90;;;;;;4984420;28;20442;-85
2022/07/22 08:22:53;;;;;;;1.60;1.50;;;27.60;99.90;;;;;;4970283;28;20517;-84
2022/07/22 08:25:20;;;;;;;1.47;1.40;;;27.00;99.90;;;;;;4969936;28;20924;-84
2022/07/22 08:27:47;;;;;;;1.30;1.30;;;27.20;99.90;;;;;;4968340;28;20441;-84
2022/07/22 08:30:14;;;;;;;1.35;1.35;;;27.60;99.90;;;;;;4973533;28;20438;-83
2022/07/22 08:32:41;;;;;;;1.20;1.20;;;28.10;99.90;;;;;;4982891;28;21004;-83
2022/07/22 08:35:08;;;;;;;1.30;1.30;;;28.80;99.90;;;;;;4973033;28;20456;-84
2022/07/22 08:37:35;;;;;;;1.20;1.20;;;29.00;99.90;;;;;;4967892;28;20440;-84
2022/07/22 08:40:06;;;;;;;1.15;1.05;;;28.90;99.90;;;;;;4969610;28;20438;-83
2022/07/22 08:42:37;;;;;;;1.10;1.10;;;27.00;99.90;;;;;;4970378;28;20440;-84
2022/07/22 08:45:04;;;;;;;1.15;1.15;;;26.90;99.90;;;;;;4976534;28;20873;-84
2022/07/22 08:47:32;;;;;;;1.30;1.20;;;27.10;99.90;;;;;;4965970;28;20466;-84
2022/07/22 08:50:16;;;;;;;0.98;0.98;;;27.60;99.90;;;;;;4969540;28;20525;-84
2022/07/22 08:52:43;;;;;;;1.08;1.08;;;27.80;99.90;;;;;;4969384;28;20434;-85
2022/07/22 08:55:10;;;;;;;1.17;1.08;;;28.10;99.90;;;;;;4969001;28;21232;-84
2022/07/22 08:57:37;;;;;;;1.20;1.20;;;28.30;99.90;;;;;;4969056;28;20509;-85
2022/07/22 09:00:21;;;;;;;1.10;1.10;;;28.00;99.90;;;;;;4986665;28;20518;-84
2022/07/22 09:02:52;;;;;;;1.20;1.20;;;27.90;99.90;;;;;;4979840;28;20473;-85
2022/07/22 09:05:19;;;;;;;1.20;1.10;;;27.90;99.90;;;;;;4989155;28;20445;-84
2022/07/22 09:08:06;;;;;;;1.00;1.00;;;27.40;99.90;;;;;;4989463;28;20430;-84
2022/07/22 09:10:35;;;;;;;1.00;1.00;;;27.40;99.90;;;;;;4971435;28;20442;-84
2022/07/22 09:13:06;;;;;;;1.30;1.30;;;27.60;99.90;;;;;;4981435;28;20438;-85
2022/07/22 09:15:36;;;;;;;1.08;1.08;;;27.80;99.90;;;;;;4972291;28;20466;-86
2022/07/22 09:18:10;;;;;;;1.23;1.15;;;27.50;99.90;;;;;;4990157;28;20470;-85
2022/07/22 09:20:40;;;;;;;1.08;1.08;;;27.50;99.90;;;;;;4984821;28;20478;-85
2022/07/22 09:23:12;;;;;;;1.25;1.10;;;27.50;99.90;;;;;;4972434;28;20518;-85
2022/07/22 09:25:40;;;;;;;0.98;0.98;;;28.00;99.90;;;;;;4987537;28;20434;-84
2022/07/22 09:28:07;;;;;;;1.20;1.10;;;28.00;99.90;;;;;;4986022;28;20975;-85
2022/07/22 09:30:38;;;;;;;1.40;1.25;;;27.20;99.90;;;;;;4986660;28;20462;-87
2022/07/22 09:33:10;;;;;;;1.40;1.30;;;27.00;99.90;;;;;;4978061;28;20561;-85
2022/07/22 09:35:39;;;;;;;1.38;1.30;;;27.50;99.90;;;;;;4987452;28;20524;-85
2022/07/22 09:38:14;;;;;;;1.00;1.00;;;27.40;99.90;;;;;;4982271;28;20474;-86
2022/07/22 09:40:44;;;;;;;1.10;1.10;;;27.40;99.90;;;;;;4971389;28;20442;-85
2022/07/22 09:43:19;;;;;;;1.13;1.10;;;27.00;99.90;;;;;;4986374;28;20450;-85
2022/07/22 09:45:57;;;;;;;0.98;0.98;;;27.40;99.90;;;;;;4987223;28;20442;-85
2022/07/22 09:48:25;;;;;;;1.08;1.08;;;28.00;99.90;;;;;;4963701;28;20764;-84
2022/07/22 09:50:55;;;;;;;1.00;1.00;;;28.30;99.90;;;;;;4967367;28;20766;-86
2022/07/22 09:53:24;;;;;;;0.88;0.88;;;28.00;99.90;;;;;;5000762;28;20906;-85
2022/07/22 09:55:54;;;;;;;1.00;1.00;;;27.80;99.90;;;;;;4966908;28;21013;-86
2022/07/22 09:58:21;;;;;;;1.00;1.00;;;28.10;99.90;;;;;;4985795;28;20441;-84
2022/07/22 10:00:49;;;;;;;1.10;1.10;;;28.20;99.90;;;;;;4981051;28;20436;-85
2022/07/22 10:03:31;;;;;;;1.10;1.10;;;28.80;99.90;;;;;;4987322;28;20459;-91
2022/07/22 10:06:00;;;;;;;1.02;1.02;;;28.50;99.90;;;;;;4978039;28;20433;-92
2022/07/22 10:08:29;;;;;;;1.00;1.00;;;28.00;99.90;;;;;;4988264;28;20521;-91
2022/07/22 10:11:00;;;;;;;0.95;0.95;;;27.40;99.90;;;;;;4982836;28;20477;-92
2022/07/22 10:13:27;;;;;;;1.20;1.17;;;28.10;99.90;;;;;;4971751;28;20519;-88
2022/07/22 10:15:56;;;;;;;0.90;0.90;;;28.70;99.90;;;;;;4979213;28;20850;-87
2022/07/22 10:18:25;;;;;;;0.90;0.90;;;28.70;99.90;;;;;;4988960;28;20423;-84
2022/07/22 10:21:06;;;;;;;1.10;1.10;;;29.30;99.90;;;;;;4989580;28;20597;-84
2022/07/22 10:23:33;;;;;;;1.10;1.10;;;29.80;99.90;;;;;;4966369;28;20577;-86
2022/07/22 10:26:02;;;;;;;0.90;0.90;;;29.80;99.90;;;;;;4971678;28;20437;-84
2022/07/22 10:28:33;;;;;;;1.15;1.10;;;29.80;99.90;;;;;;4969472;28;20509;-85
2022/07/22 10:31:23;;;;;;;0.90;0.90;;;29.50;99.90;;;;;;4967524;28;20528;-88
2022/07/22 10:33:53;;;;;;;1.05;1.05;;;29.40;99.90;;;;;;4971324;28;20497;-86
2022/07/22 10:36:34;;;;;;;3.70;1.13;;;28.80;99.90;;;;;;4987695;28;20505;-85
2022/07/22 10:39:07;;;;;;;1.10;1.10;;;28.90;99.90;;;;;;4987046;28;20535;-85
2022/07/22 10:41:43;;;;;;;1.10;1.10;;;28.80;99.90;;;;;;4968979;28;20509;-86
2022/07/22 10:44:47;;;;;;;1.10;1.10;;;29.00;99.90;;;;;;4970894;28;20442;-84
2022/07/22 10:47:55;;;;;;;1.05;1.05;;;29.20;99.90;;;;;;4984168;28;20494;-84
2022/07/22 10:51:04;;;;;;;1.03;1.03;;;28.70;99.90;;;;;;4967055;28;20999;-89
2022/07/22 10:53:45;;;;;;;1.00;1.00;;;28.70;99.90;;;;;;4972091;28;20442;-85
2022/07/22 10:56:20;;;;;;;0.80;0.80;;;28.70;99.90;;;;;;4989590;28;20452;-87
2022/07/22 10:58:56;;;;;;;0.93;0.93;;;28.90;99.90;;;;;;4987983;28;20607;-87
2022/07/22 11:01:29;;;;;;;1.00;1.00;;;29.00;99.90;;;;;;4983087;28;20473;-86
2022/07/22 11:04:18;;;;;;;1.00;1.00;;;29.40;99.90;;;;;;4957873;28;21199;-86
2022/07/22 11:06:50;;;;;;;1.02;0.85;;;30.00;99.90;;;;;;4966888;28;20521;-87
2022/07/22 11:09:21;;;;;;;1.02;1.02;;;30.20;99.90;;;;;;4963456;28;20465;-87
2022/07/22 11:11:54;;;;;;;0.80;0.80;;;30.10;99.90;;;;;;4972113;28;20845;-86
2022/07/22 11:14:30;;;;;;;1.10;1.10;;;30.40;99.90;;;;;;4967053;28;20446;-86
2022/07/22 11:16:58;;;;;;;1.00;1.00;;;30.80;99.90;;;;;;4969760;28;20914;-86
2022/07/22 11:19:28;;;;;;;1.10;1.10;;;31.20;99.90;;;;;;5004590;28;20465;-86
2022/07/22 11:21:58;;;;;;;1.00;1.00;;;30.70;99.30;;;;;;4999505;28;20521;-85
2022/07/22 11:24:25;;;;;;;1.13;1.13;;;31.20;99.20;;;;;;5004792;28;20447;-85
2022/07/22 11:26:54;;;;;;;0.90;0.90;;;31.30;99.00;;;;;;4990513;28;20438;-86
2022/07/22 11:29:39;;;;;;;0.90;0.90;;;31.20;98.90;;;;;;4990559;28;20441;-86
2022/07/22 11:32:09;;;;;;;1.17;1.17;;;31.20;98.20;;;;;;4973856;28;20457;-86
2022/07/22 11:34:42;;;;;;;1.05;1.05;;;31.30;98.00;;;;;;4978129;28;20426;-87
2022/07/22 11:37:09;;;;;;;0.80;0.80;;;31.50;97.90;;;;;;4980198;28;20531;-87
2022/07/22 11:39:39;;;;;;;0.88;0.88;;;31.80;96.30;;;;;;4976957;28;20469;-86
2022/07/22 11:42:09;;;;;;;0.93;0.93;;;31.50;97.00;;;;;;4984726;28;20907;-86
2022/07/22 11:44:37;;;;;;;1.10;1.10;;;31.50;97.60;;;;;;4984411;28;20432;-86
2022/07/22 11:47:06;;;;;;;1.15;1.15;;;31.30;97.50;;;;;;4989230;28;20825;-85
2022/07/22 11:49:35;;;;;;;0.93;0.93;;;31.30;97.20;;;;;;4995255;28;20469;-86
2022/07/22 11:52:13;;;;;;;0.80;0.80;;;31.50;96.90;;;;;;5010661;28;20549;-86
2022/07/22 11:54:42;;;;;;;1.05;0.95;;;31.60;96.70;;;;;;5000699;28;20446;-87
2022/07/22 11:57:10;;;;;;;0.90;0.90;;;31.30;96.50;;;;;;5003547;28;20449;-86
2022/07/22 11:59:39;;;;;;;1.00;1.00;;;31.60;96.40;;;;;;4987237;28;20525;-86
2022/07/22 12:02:09;;;;;;;0.98;0.98;;;31.60;96.40;;;;;;5002708;28;20579;-86
2022/07/22 12:04:37;;;;;;;1.30;1.20;;;31.80;96.00;;;;;;4999070;28;20720;-87
2022/07/22 12:07:07;;;;;;;1.10;1.10;;;31.60;96.10;;;;;;5002456;28;20579;-86
2022/07/22 12:09:38;;;;;;;0.95;0.95;;;31.10;96.60;;;;;;4981842;28;20430;-87
2022/07/22 12:12:06;;;;;;;0.93;0.93;;;30.80;96.90;;;;;;4993031;28;20486;-87
2022/07/22 12:14:34;;;;;;;1.10;1.10;;;30.80;97.30;;;;;;4980842;28;20513;-87
2022/07/22 12:17:04;;;;;;;0.80;0.80;;;31.00;96.60;;;;;;4975899;28;20812;-87
2022/07/22 12:19:34;;;;;;;1.00;1.00;;;31.20;96.10;;;;;;4972381;28;20466;-88
2022/07/22 12:22:06;;;;;;;1.10;1.10;;;31.40;96.30;;;;;;4987527;28;20462;-88
2022/07/22 12:24:37;;;;;;;0.90;0.90;;;31.80;97.20;;;;;;4974591;28;20473;-87
2022/07/22 12:27:07;;;;;;;1.00;1.00;;;32.20;95.80;;;;;;4975483;28;20453;-86
2022/07/22 12:29:37;;;;;;;1.02;1.02;;;32.40;95.50;;;;;;4993711;28;20441;-87
2022/07/22 12:32:22;;;;;;;0.90;0.90;;;32.50;95.50;;;;;;4970154;28;21064;-88
2022/07/22 12:34:57;;;;;;;1.10;1.10;;;32.40;94.60;;;;;;4990205;28;20677;-87
2022/07/22 12:37:32;;;;;;;1.35;1.33;;;32.50;94.80;;;;;;4992113;28;20521;-86
2022/07/22 12:40:03;;;;;;;1.05;1.05;;;32.00;95.40;;;;;;4988326;28;20987;-85
2022/07/22 12:42:35;;;;;;;1.25;1.25;;;32.20;95.60;;;;;;4991103;28;20498;-87
2022/07/22 12:45:18;;;;;;;0.80;0.80;;;31.90;95.70;;;;;;4973719;28;20438;-86
2022/07/22 12:47:49;;;;;;;0.90;0.90;;;32.00;95.10;;;;;;4971695;28;20438;-85
2022/07/22 12:50:29;;;;;;;0.98;0.98;;;31.90;95.20;;;;;;4988375;28;20445;-85
2022/07/22 12:53:05;;;;;;;1.00;1.00;;;32.10;94.70;;;;;;4973323;28;21012;-85
2022/07/22 12:55:43;;;;;;;1.23;1.23;;;32.00;94.00;;;;;;4990866;28;20690;-85
2022/07/22 12:58:11;;;;;;;0.98;0.98;;;32.10;94.40;;;;;;4985033;28;20873;-84
2022/07/22 13:00:43;;;;;;;1.20;1.20;;;32.30;94.70;;;;;;4993314;28;20458;-86